sensor_id;sensor_type;location;lat;lon;timestamp;pressure;altitude;pressure_sealevel;temperature;humidity
78431;BME280;67727;50.236;22.452;2023-08-07T00:01:54;98219.15;;;16.49;74.68
78431;BME280;67727;50.236;22.452;2023-08-07T00:04:21;98219.45;;;16.47;74.76
78431;BME280;67727;50.236;22.452;2023-08-07T00:06:48;98223.56;;;16.44;74.51
78431;BME280;67727;50.236;22.452;2023-08-07T00:09:15;98228.16;;;16.41;74.74
78431;BME280;67727;50.236;22.452;2023-08-07T00:11:41;98221.80;;;16.37;74.77
78431;BME280;67727;50.236;22.452;2023-08-07T00:14:08;98221.06;;;16.32;74.72
78431;BME280;67727;50.236;22.452;2023-08-07T00:16:35;98216.48;;;16.30;74.95
78431;BME280;67727;50.236;22.452;2023-08-07T00:19:02;98219.20;;;16.30;74.89
78431;BME280;67727;50.236;22.452;2023-08-07T00:21:29;98222.77;;;16.31;75.15
78431;BME280;67727;50.236;22.452;2023-08-07T00:23:56;98221.16;;;16.31;74.81
78431;BME280;67727;50.236;22.452;2023-08-07T00:26:23;98222.50;;;16.31;74.97
78431;BME280;67727;50.236;22.452;2023-08-07T00:28:49;98219.03;;;16.32;74.90
78431;BME280;67727;50.236;22.452;2023-08-07T00:31:16;98216.04;;;16.32;74.81
78431;BME280;67727;50.236;22.452;2023-08-07T00:33:43;98220.38;;;16.33;74.86
78431;BME280;67727;50.236;22.452;2023-08-07T00:36:10;98225.96;;;16.31;74.63
78431;BME280;67727;50.236;22.452;2023-08-07T00:38:37;98226.71;;;16.31;74.80
78431;BME280;67727;50.236;22.452;2023-08-07T00:41:03;98221.17;;;16.29;74.82
78431;BME280;67727;50.236;22.452;2023-08-07T00:43:31;98227.27;;;16.29;74.75
78431;BME280;67727;50.236;22.452;2023-08-07T00:45:58;98228.68;;;16.30;74.77
78431;BME280;67727;50.236;22.452;2023-08-07T00:48:25;98232.92;;;16.31;74.74
78431;BME280;67727;50.236;22.452;2023-08-07T00:50:51;98230.75;;;16.30;74.59
78431;BME280;67727;50.236;22.452;2023-08-07T00:53:19;98227.22;;;16.30;74.86
78431;BME280;67727;50.236;22.452;2023-08-07T00:55:46;98231.83;;;16.30;74.50
78431;BME280;67727;50.236;22.452;2023-08-07T00:58:14;98234.04;;;16.26;74.61
78431;BME280;67727;50.236;22.452;2023-08-07T01:00:41;98242.02;;;16.24;74.61
78431;BME280;67727;50.236;22.452;2023-08-07T01:03:11;98246.02;;;16.23;74.66
78431;BME280;67727;50.236;22.452;2023-08-07T01:05:38;98254.19;;;16.22;74.68
78431;BME280;67727;50.236;22.452;2023-08-07T01:08:05;98259.96;;;16.21;74.86
78431;BME280;67727;50.236;22.452;2023-08-07T01:16:18;98285.30;;;16.21;74.54
78431;BME280;67727;50.236;22.452;2023-08-07T01:18:49;98285.04;;;16.22;74.42
78431;BME280;67727;50.236;22.452;2023-08-07T01:21:19;98288.69;;;16.22;74.63
78431;BME280;67727;50.236;22.452;2023-08-07T01:23:49;98291.33;;;16.24;74.51
78431;BME280;67727;50.236;22.452;2023-08-07T01:26:18;98298.48;;;16.23;74.49
78431;BME280;67727;50.236;22.452;2023-08-07T01:28:52;98300.14;;;16.24;74.32
78431;BME280;67727;50.236;22.452;2023-08-07T01:31:22;98298.25;;;16.25;74.44
78431;BME280;67727;50.236;22.452;2023-08-07T01:33:57;98294.89;;;16.26;74.19
78431;BME280;67727;50.236;22.452;2023-08-07T01:36:27;98295.77;;;16.28;74.62
78431;BME280;67727;50.236;22.452;2023-08-07T01:38:57;98297.36;;;16.30;74.24
78431;BME280;67727;50.236;22.452;2023-08-07T01:41:26;98299.14;;;16.31;74.39
78431;BME280;67727;50.236;22.452;2023-08-07T01:43:54;98298.27;;;16.31;74.49
78431;BME280;67727;50.236;22.452;2023-08-07T01:46:21;98296.61;;;16.31;74.31
78431;BME280;67727;50.236;22.452;2023-08-07T01:48:48;98296.41;;;16.29;74.37
78431;BME280;67727;50.236;22.452;2023-08-07T01:51:15;98294.86;;;16.28;74.19
78431;BME280;67727;50.236;22.452;2023-08-07T01:53:42;98291.13;;;16.25;74.40
78431;BME280;67727;50.236;22.452;2023-08-07T01:56:09;98290.19;;;16.23;74.15
78431;BME280;67727;50.236;22.452;2023-08-07T01:58:35;98289.70;;;16.23;74.48
78431;BME280;67727;50.236;22.452;2023-08-07T02:01:02;98281.66;;;16.20;74.15
78431;BME280;67727;50.236;22.452;2023-08-07T02:03:29;98282.04;;;16.17;74.21
78431;BME280;67727;50.236;22.452;2023-08-07T02:05:56;98278.27;;;16.16;74.37
78431;BME280;67727;50.236;22.452;2023-08-07T02:08:23;98277.30;;;16.14;74.35
78431;BME280;67727;50.236;22.452;2023-08-07T02:10:50;98274.14;;;16.13;74.51
78431;BME280;67727;50.236;22.452;2023-08-07T02:13:17;98277.77;;;16.12;74.41
78431;BME280;67727;50.236;22.452;2023-08-07T02:15:43;98278.77;;;16.12;74.55
78431;BME280;67727;50.236;22.452;2023-08-07T02:18:10;98277.48;;;16.11;74.37
78431;BME280;67727;50.236;22.452;2023-08-07T02:20:37;98274.20;;;16.11;74.64
78431;BME280;67727;50.236;22.452;2023-08-07T02:23:04;98274.34;;;16.12;74.45
78431;BME280;67727;50.236;22.452;2023-08-07T02:25:31;98274.36;;;16.11;74.60
78431;BME280;67727;50.236;22.452;2023-08-07T02:27:58;98278.55;;;16.11;74.58
78431;BME280;67727;50.236;22.452;2023-08-07T02:30:25;98276.50;;;16.11;74.58
78431;BME280;67727;50.236;22.452;2023-08-07T02:32:52;98280.64;;;16.12;74.39
78431;BME280;67727;50.236;22.452;2023-08-07T02:35:18;98285.42;;;16.11;74.44
78431;BME280;67727;50.236;22.452;2023-08-07T02:37:45;98285.19;;;16.09;74.37
78431;BME280;67727;50.236;22.452;2023-08-07T02:40:12;98291.86;;;16.07;74.60
78431;BME280;67727;50.236;22.452;2023-08-07T02:42:41;98300.66;;;16.06;74.48
78431;BME280;67727;50.236;22.452;2023-08-07T02:45:09;98305.15;;;16.05;74.53
78431;BME280;67727;50.236;22.452;2023-08-07T02:47:36;98301.14;;;16.05;74.53
78431;BME280;67727;50.236;22.452;2023-08-07T02:50:03;98301.02;;;16.04;74.65
78431;BME280;67727;50.236;22.452;2023-08-07T02:52:30;98299.18;;;16.03;74.41
78431;BME280;67727;50.236;22.452;2023-08-07T02:54:57;98301.27;;;16.04;74.48
78431;BME280;67727;50.236;22.452;2023-08-07T02:57:24;98300.49;;;16.03;74.49
78431;BME280;67727;50.236;22.452;2023-08-07T02:59:52;98305.46;;;16.02;74.55
78431;BME280;67727;50.236;22.452;2023-08-07T03:02:19;98313.58;;;16.00;74.73
78431;BME280;67727;50.236;22.452;2023-08-07T03:04:46;98317.83;;;15.98;74.54
78431;BME280;67727;50.236;22.452;2023-08-07T03:07:12;98323.94;;;15.97;74.65
78431;BME280;67727;50.236;22.452;2023-08-07T03:09:39;98328.88;;;15.95;74.60
78431;BME280;67727;50.236;22.452;2023-08-07T03:12:07;98332.08;;;15.94;74.58
78431;BME280;67727;50.236;22.452;2023-08-07T03:14:33;98335.61;;;15.94;74.67
78431;BME280;67727;50.236;22.452;2023-08-07T03:17:00;98340.48;;;15.95;74.85
78431;BME280;67727;50.236;22.452;2023-08-07T03:19:27;98342.16;;;15.97;74.63
78431;BME280;67727;50.236;22.452;2023-08-07T03:21:54;98345.69;;;15.99;74.90
78431;BME280;67727;50.236;22.452;2023-08-07T03:24:21;98347.37;;;16.01;74.71
78431;BME280;67727;50.236;22.452;2023-08-07T03:26:47;98348.04;;;16.03;74.83
78431;BME280;67727;50.236;22.452;2023-08-07T03:29:15;98345.52;;;16.06;74.55
78431;BME280;67727;50.236;22.452;2023-08-07T03:31:42;98347.19;;;16.07;74.49
78431;BME280;67727;50.236;22.452;2023-08-07T03:34:09;98347.50;;;16.07;74.52
78431;BME280;67727;50.236;22.452;2023-08-07T03:36:36;98350.08;;;16.07;74.61
78431;BME280;67727;50.236;22.452;2023-08-07T03:39:03;98351.95;;;16.07;74.46
78431;BME280;67727;50.236;22.452;2023-08-07T03:41:29;98353.30;;;16.10;74.36
78431;BME280;67727;50.236;22.452;2023-08-07T03:43:56;98359.73;;;16.13;74.22
78431;BME280;67727;50.236;22.452;2023-08-07T03:46:23;98359.39;;;16.16;74.34
78431;BME280;67727;50.236;22.452;2023-08-07T03:48:50;98360.90;;;16.17;74.08
78431;BME280;67727;50.236;22.452;2023-08-07T03:51:17;98362.64;;;16.16;74.04
78431;BME280;67727;50.236;22.452;2023-08-07T03:53:44;98359.48;;;16.14;74.26
78431;BME280;67727;50.236;22.452;2023-08-07T03:56:11;98363.18;;;16.11;74.43
78431;BME280;67727;50.236;22.452;2023-08-07T03:58:38;98368.09;;;16.11;74.34
78431;BME280;67727;50.236;22.452;2023-08-07T04:01:05;98370.42;;;16.11;74.30
78431;BME280;67727;50.236;22.452;2023-08-07T04:03:32;98371.83;;;16.11;74.49
78431;BME280;67727;50.236;22.452;2023-08-07T04:05:59;98370.26;;;16.12;74.35
78431;BME280;67727;50.236;22.452;2023-08-07T04:08:28;98368.11;;;16.12;74.21
78431;BME280;67727;50.236;22.452;2023-08-07T04:11:04;98367.90;;;16.12;74.31
78431;BME280;67727;50.236;22.452;2023-08-07T04:13:31;98363.51;;;16.12;74.25
78431;BME280;67727;50.236;22.452;2023-08-07T04:15:58;98365.22;;;16.12;74.27
78431;BME280;67727;50.236;22.452;2023-08-07T04:18:27;98368.41;;;16.15;74.07
78431;BME280;67727;50.236;22.452;2023-08-07T04:20:55;98369.65;;;16.18;74.01
78431;BME280;67727;50.236;22.452;2023-08-07T04:23:22;98376.87;;;16.18;74.01
78431;BME280;67727;50.236;22.452;2023-08-07T04:25:50;98375.61;;;16.20;73.93
78431;BME280;67727;50.236;22.452;2023-08-07T04:28:17;98371.45;;;16.24;73.93
78431;BME280;67727;50.236;22.452;2023-08-07T04:30:45;98373.41;;;16.27;74.02
78431;BME280;67727;50.236;22.452;2023-08-07T04:33:15;98376.50;;;16.30;73.98
78431;BME280;67727;50.236;22.452;2023-08-07T04:35:42;98375.94;;;16.32;73.88
78431;BME280;67727;50.236;22.452;2023-08-07T04:38:09;98373.90;;;16.31;73.89
78431;BME280;67727;50.236;22.452;2023-08-07T04:40:35;98373.33;;;16.32;73.85
78431;BME280;67727;50.236;22.452;2023-08-07T04:43:02;98373.79;;;16.36;73.67
78431;BME280;67727;50.236;22.452;2023-08-07T04:45:29;98376.22;;;16.41;73.63
78431;BME280;67727;50.236;22.452;2023-08-07T04:47:56;98380.21;;;16.47;73.72
78431;BME280;67727;50.236;22.452;2023-08-07T04:50:23;98378.54;;;16.54;73.49
78431;BME280;67727;50.236;22.452;2023-08-07T04:52:50;98379.79;;;16.59;73.44
78431;BME280;67727;50.236;22.452;2023-08-07T04:55:17;98381.98;;;16.67;73.52
78431;BME280;67727;50.236;22.452;2023-08-07T04:57:44;98383.02;;;16.75;73.37
78431;BME280;67727;50.236;22.452;2023-08-07T05:00:11;98379.92;;;16.81;72.84
78431;BME280;67727;50.236;22.452;2023-08-07T05:02:38;98377.30;;;16.84;72.53
78431;BME280;67727;50.236;22.452;2023-08-07T05:05:05;98375.39;;;16.86;72.51
78431;BME280;67727;50.236;22.452;2023-08-07T05:07:33;98378.88;;;16.92;72.61
78431;BME280;67727;50.236;22.452;2023-08-07T05:10:02;98380.34;;;16.97;72.23
78431;BME280;67727;50.236;22.452;2023-08-07T05:12:29;98376.20;;;17.01;72.35
78431;BME280;67727;50.236;22.452;2023-08-07T05:14:56;98380.77;;;17.06;72.39
78431;BME280;67727;50.236;22.452;2023-08-07T05:17:23;98384.15;;;17.08;72.04
78431;BME280;67727;50.236;22.452;2023-08-07T05:19:50;98383.17;;;17.08;71.56
78431;BME280;67727;50.236;22.452;2023-08-07T05:22:17;98387.09;;;17.08;71.91
78431;BME280;67727;50.236;22.452;2023-08-07T05:24:43;98386.29;;;17.11;71.76
78431;BME280;67727;50.236;22.452;2023-08-07T05:27:11;98388.50;;;17.13;71.33
78431;BME280;67727;50.236;22.452;2023-08-07T05:29:38;98385.66;;;17.13;70.60
78431;BME280;67727;50.236;22.452;2023-08-07T05:32:12;98384.38;;;17.15;71.17
78431;BME280;67727;50.236;22.452;2023-08-07T05:34:39;98385.84;;;17.26;71.60
78431;BME280;67727;50.236;22.452;2023-08-07T05:37:06;98387.34;;;17.40;71.40
78431;BME280;67727;50.236;22.452;2023-08-07T05:39:34;98386.80;;;17.51;71.40
78431;BME280;67727;50.236;22.452;2023-08-07T05:42:02;98390.22;;;17.61;71.29
78431;BME280;67727;50.236;22.452;2023-08-07T05:44:29;98390.19;;;17.74;70.97
78431;BME280;67727;50.236;22.452;2023-08-07T05:46:56;98393.05;;;17.82;70.57
78431;BME280;67727;50.236;22.452;2023-08-07T05:49:23;98388.62;;;17.91;70.49
78431;BME280;67727;50.236;22.452;2023-08-07T05:51:49;98390.83;;;17.99;69.93
78431;BME280;67727;50.236;22.452;2023-08-07T05:54:16;98390.98;;;18.06;69.97
78431;BME280;67727;50.236;22.452;2023-08-07T05:56:43;98392.61;;;18.15;69.64
78431;BME280;67727;50.236;22.452;2023-08-07T05:59:10;98393.09;;;18.22;69.36
78431;BME280;67727;50.236;22.452;2023-08-07T06:01:37;98393.95;;;18.31;69.03
78431;BME280;67727;50.236;22.452;2023-08-07T06:04:04;98391.61;;;18.41;68.86
78431;BME280;67727;50.236;22.452;2023-08-07T06:06:30;98392.26;;;18.52;67.80
78431;BME280;67727;50.236;22.452;2023-08-07T06:09:01;98391.70;;;18.67;67.84
78431;BME280;67727;50.236;22.452;2023-08-07T06:11:32;98391.38;;;18.86;67.79
78431;BME280;67727;50.236;22.452;2023-08-07T06:13:59;98396.46;;;19.10;67.37
78431;BME280;67727;50.236;22.452;2023-08-07T06:16:26;98397.54;;;19.29;66.53
78431;BME280;67727;50.236;22.452;2023-08-07T06:18:53;98396.12;;;19.45;66.66
78431;BME280;67727;50.236;22.452;2023-08-07T06:21:20;98394.32;;;19.56;65.94
78431;BME280;67727;50.236;22.452;2023-08-07T06:23:47;98393.00;;;19.58;65.27
78431;BME280;67727;50.236;22.452;2023-08-07T06:26:14;98396.24;;;19.62;65.01
78431;BME280;67727;50.236;22.452;2023-08-07T06:28:42;98396.83;;;19.68;65.29
78431;BME280;67727;50.236;22.452;2023-08-07T06:31:10;98401.61;;;19.71;64.38
78431;BME280;67727;50.236;22.452;2023-08-07T06:33:37;98400.75;;;19.70;63.94
78431;BME280;67727;50.236;22.452;2023-08-07T06:36:05;98396.41;;;19.68;64.09
78431;BME280;67727;50.236;22.452;2023-08-07T06:38:31;98393.83;;;19.72;63.63
78431;BME280;67727;50.236;22.452;2023-08-07T06:40:58;98397.00;;;19.86;64.73
78431;BME280;67727;50.236;22.452;2023-08-07T06:43:25;98391.20;;;20.05;63.44
78431;BME280;67727;50.236;22.452;2023-08-07T06:45:53;98390.10;;;20.19;62.40
78431;BME280;67727;50.236;22.452;2023-08-07T06:48:21;98391.06;;;20.29;60.29
78431;BME280;67727;50.236;22.452;2023-08-07T06:50:49;98388.80;;;20.18;60.98
78431;BME280;67727;50.236;22.452;2023-08-07T06:53:16;98385.96;;;20.13;61.39
78431;BME280;67727;50.236;22.452;2023-08-07T06:55:43;98385.84;;;20.13;61.37
78431;BME280;67727;50.236;22.452;2023-08-07T06:58:10;98390.33;;;20.11;61.58
78431;BME280;67727;50.236;22.452;2023-08-07T07:00:37;98392.86;;;20.08;61.08
78431;BME280;67727;50.236;22.452;2023-08-07T07:03:05;98396.79;;;20.12;61.81
78431;BME280;67727;50.236;22.452;2023-08-07T07:05:34;98400.40;;;20.15;61.84
78431;BME280;67727;50.236;22.452;2023-08-07T07:08:01;98401.41;;;20.16;61.63
78431;BME280;67727;50.236;22.452;2023-08-07T07:10:28;98400.37;;;20.23;61.13
78431;BME280;67727;50.236;22.452;2023-08-07T07:12:56;98405.80;;;20.35;61.27
78431;BME280;67727;50.236;22.452;2023-08-07T07:15:23;98403.52;;;20.45;58.97
78431;BME280;67727;50.236;22.452;2023-08-07T07:17:50;98412.41;;;20.45;59.62
78431;BME280;67727;50.236;22.452;2023-08-07T07:20:16;98412.63;;;20.55;60.27
78431;BME280;67727;50.236;22.452;2023-08-07T07:22:43;98412.98;;;20.66;59.93
78431;BME280;67727;50.236;22.452;2023-08-07T07:25:10;98417.14;;;20.78;59.89
78431;BME280;67727;50.236;22.452;2023-08-07T07:27:39;98416.27;;;20.94;58.90
78431;BME280;67727;50.236;22.452;2023-08-07T07:30:06;98421.30;;;21.16;58.77
78431;BME280;67727;50.236;22.452;2023-08-07T07:32:33;98425.10;;;21.23;57.05
78431;BME280;67727;50.236;22.452;2023-08-07T07:35:00;98425.51;;;21.30;57.73
78431;BME280;67727;50.236;22.452;2023-08-07T07:37:27;98430.23;;;21.36;57.40
78431;BME280;67727;50.236;22.452;2023-08-07T07:39:54;98432.89;;;21.35;57.02
78431;BME280;67727;50.236;22.452;2023-08-07T07:42:21;98437.48;;;21.42;56.20
78431;BME280;67727;50.236;22.452;2023-08-07T07:44:48;98440.91;;;21.56;56.14
78431;BME280;67727;50.236;22.452;2023-08-07T07:47:15;98444.80;;;21.73;55.06
78431;BME280;67727;50.236;22.452;2023-08-07T07:49:45;98441.55;;;21.90;55.92
78431;BME280;67727;50.236;22.452;2023-08-07T07:52:13;98443.68;;;22.11;54.83
78431;BME280;67727;50.236;22.452;2023-08-07T07:54:40;98446.68;;;22.15;54.94
78431;BME280;67727;50.236;22.452;2023-08-07T07:57:07;98452.91;;;22.30;52.53
78431;BME280;67727;50.236;22.452;2023-08-07T07:59:34;98452.23;;;22.40;51.45
78431;BME280;67727;50.236;22.452;2023-08-07T08:02:00;98455.42;;;22.52;52.79
78431;BME280;67727;50.236;22.452;2023-08-07T08:04:28;98457.88;;;22.49;50.71
78431;BME280;67727;50.236;22.452;2023-08-07T08:06:55;98461.11;;;22.55;52.69
78431;BME280;67727;50.236;22.452;2023-08-07T08:09:21;98462.39;;;22.59;52.88
78431;BME280;67727;50.236;22.452;2023-08-07T08:11:48;98468.71;;;22.57;53.12
78431;BME280;67727;50.236;22.452;2023-08-07T08:14:17;98473.80;;;22.51;53.09
78431;BME280;67727;50.236;22.452;2023-08-07T08:16:44;98481.02;;;22.40;52.63
78431;BME280;67727;50.236;22.452;2023-08-07T08:19:11;98479.63;;;22.26;53.25
78431;BME280;67727;50.236;22.452;2023-08-07T08:21:39;98485.20;;;22.17;53.16
78431;BME280;67727;50.236;22.452;2023-08-07T08:24:06;98482.95;;;22.16;52.93
78431;BME280;67727;50.236;22.452;2023-08-07T08:26:33;98482.71;;;22.18;53.12
78431;BME280;67727;50.236;22.452;2023-08-07T08:29:02;98479.31;;;22.25;53.54
78431;BME280;67727;50.236;22.452;2023-08-07T08:31:30;98480.66;;;22.32;51.79
78431;BME280;67727;50.236;22.452;2023-08-07T08:33:58;98485.04;;;22.38;53.22
78431;BME280;67727;50.236;22.452;2023-08-07T08:36:25;98488.27;;;22.44;50.49
78431;BME280;67727;50.236;22.452;2023-08-07T08:38:53;98484.67;;;22.37;51.04
78431;BME280;67727;50.236;22.452;2023-08-07T08:41:20;98486.42;;;22.21;50.26
78431;BME280;67727;50.236;22.452;2023-08-07T08:43:51;98487.38;;;21.94;51.07
78431;BME280;67727;50.236;22.452;2023-08-07T08:46:24;98493.48;;;21.78;53.38
78431;BME280;67727;50.236;22.452;2023-08-07T08:48:59;98496.69;;;21.84;52.40
78431;BME280;67727;50.236;22.452;2023-08-07T08:51:30;98485.74;;;22.07;53.23
78431;BME280;67727;50.236;22.452;2023-08-07T08:53:59;98485.45;;;22.28;49.65
78431;BME280;67727;50.236;22.452;2023-08-07T08:56:29;98490.05;;;22.25;50.95
78431;BME280;67727;50.236;22.452;2023-08-07T08:58:57;98489.39;;;22.21;50.94
78431;BME280;67727;50.236;22.452;2023-08-07T09:01:24;98493.81;;;22.14;51.67
78431;BME280;67727;50.236;22.452;2023-08-07T09:03:53;98498.41;;;22.14;52.80
78431;BME280;67727;50.236;22.452;2023-08-07T09:06:20;98495.17;;;22.33;53.73
78431;BME280;67727;50.236;22.452;2023-08-07T09:08:47;98492.09;;;22.65;53.81
78431;BME280;67727;50.236;22.452;2023-08-07T09:11:14;98489.98;;;22.94;53.02
78431;BME280;67727;50.236;22.452;2023-08-07T09:13:42;98496.73;;;23.10;52.33
78431;BME280;67727;50.236;22.452;2023-08-07T09:16:11;98493.27;;;23.14;49.49
78431;BME280;67727;50.236;22.452;2023-08-07T09:18:39;98496.58;;;23.18;50.90
78431;BME280;67727;50.236;22.452;2023-08-07T09:21:06;98495.81;;;23.28;50.22
78431;BME280;67727;50.236;22.452;2023-08-07T09:23:33;98495.08;;;23.47;49.78
78431;BME280;67727;50.236;22.452;2023-08-07T09:26:02;98501.03;;;23.61;50.05
78431;BME280;67727;50.236;22.452;2023-08-07T09:28:32;98505.11;;;23.73;49.02
78431;BME280;67727;50.236;22.452;2023-08-07T09:31:02;98506.18;;;23.78;48.18
78431;BME280;67727;50.236;22.452;2023-08-07T09:33:32;98508.15;;;23.72;48.09
78431;BME280;67727;50.236;22.452;2023-08-07T09:36:01;98507.77;;;23.72;49.03
78431;BME280;67727;50.236;22.452;2023-08-07T09:38:31;98507.00;;;23.81;49.86
78431;BME280;67727;50.236;22.452;2023-08-07T09:41:04;98510.14;;;23.96;49.92
78431;BME280;67727;50.236;22.452;2023-08-07T09:43:36;98514.59;;;23.87;47.04
78431;BME280;67727;50.236;22.452;2023-08-07T09:46:04;98521.52;;;23.80;49.08
78431;BME280;67727;50.236;22.452;2023-08-07T09:48:31;98523.83;;;23.79;49.69
78431;BME280;67727;50.236;22.452;2023-08-07T09:51:03;98526.81;;;23.77;49.31
78431;BME280;67727;50.236;22.452;2023-08-07T09:53:30;98523.66;;;23.74;49.19
78431;BME280;67727;50.236;22.452;2023-08-07T09:55:59;98522.91;;;23.73;49.25
78431;BME280;67727;50.236;22.452;2023-08-07T09:58:28;98525.15;;;23.67;49.41
78431;BME280;67727;50.236;22.452;2023-08-07T10:00:55;98530.66;;;23.57;49.93
78431;BME280;67727;50.236;22.452;2023-08-07T10:03:26;98531.42;;;23.56;50.34
78431;BME280;67727;50.236;22.452;2023-08-07T10:05:54;98532.68;;;23.52;49.76
78431;BME280;67727;50.236;22.452;2023-08-07T10:08:23;98531.40;;;23.42;49.34
78431;BME280;67727;50.236;22.452;2023-08-07T10:10:51;98531.29;;;23.28;49.95
78431;BME280;67727;50.236;22.452;2023-08-07T10:13:18;98530.79;;;23.20;50.57
78431;BME280;67727;50.236;22.452;2023-08-07T10:15:47;98527.08;;;23.14;50.96
78431;BME280;67727;50.236;22.452;2023-08-07T10:18:14;98529.44;;;23.10;50.99
78431;BME280;67727;50.236;22.452;2023-08-07T10:20:41;98532.52;;;22.98;50.85
78431;BME280;67727;50.236;22.452;2023-08-07T10:23:11;98538.69;;;22.88;51.45
78431;BME280;67727;50.236;22.452;2023-08-07T10:25:41;98537.14;;;22.83;51.69
78431;BME280;67727;50.236;22.452;2023-08-07T10:28:12;98536.23;;;22.81;52.05
78431;BME280;67727;50.236;22.452;2023-08-07T10:30:41;98533.95;;;22.79;51.90
78431;BME280;67727;50.236;22.452;2023-08-07T10:33:12;98535.41;;;22.79;52.64
78431;BME280;67727;50.236;22.452;2023-08-07T10:35:45;98535.33;;;22.80;52.08
78431;BME280;67727;50.236;22.452;2023-08-07T10:38:14;98537.60;;;22.80;52.17
78431;BME280;67727;50.236;22.452;2023-08-07T10:41:10;98539.80;;;22.83;51.78
78431;BME280;67727;50.236;22.452;2023-08-07T10:43:40;98541.92;;;22.83;51.81
78431;BME280;67727;50.236;22.452;2023-08-07T10:46:11;98546.91;;;22.85;51.44
78431;BME280;67727;50.236;22.452;2023-08-07T10:48:41;98546.14;;;22.90;52.05
78431;BME280;67727;50.236;22.452;2023-08-07T10:51:15;98549.48;;;22.95;51.68
78431;BME280;67727;50.236;22.452;2023-08-07T10:53:44;98553.73;;;22.97;52.04
78431;BME280;67727;50.236;22.452;2023-08-07T10:58:56;98550.58;;;23.05;52.02
78431;BME280;67727;50.236;22.452;2023-08-07T11:03:59;98549.36;;;23.13;52.41
78431;BME280;67727;50.236;22.452;2023-08-07T11:06:29;98552.29;;;23.16;52.18
78431;BME280;67727;50.236;22.452;2023-08-07T11:09:01;98556.10;;;23.15;50.71
78431;BME280;67727;50.236;22.452;2023-08-07T11:11:42;98559.37;;;23.13;50.31
78431;BME280;67727;50.236;22.452;2023-08-07T11:14:18;98558.13;;;23.13;50.95
78431;BME280;67727;50.236;22.452;2023-08-07T11:16:47;98561.38;;;23.17;51.34
78431;BME280;67727;50.236;22.452;2023-08-07T11:19:16;98559.63;;;23.19;50.24
78431;BME280;67727;50.236;22.452;2023-08-07T11:21:44;98553.27;;;23.17;49.87
78431;BME280;67727;50.236;22.452;2023-08-07T11:24:16;98557.69;;;23.17;50.01
78431;BME280;67727;50.236;22.452;2023-08-07T11:26:46;98560.05;;;23.20;50.14
78431;BME280;67727;50.236;22.452;2023-08-07T11:29:17;98549.42;;;23.21;50.33
78431;BME280;67727;50.236;22.452;2023-08-07T11:31:45;98550.30;;;23.25;49.68
78431;BME280;67727;50.236;22.452;2023-08-07T11:34:13;98550.12;;;23.27;48.79
78431;BME280;67727;50.236;22.452;2023-08-07T11:36:42;98548.53;;;23.29;49.13
78431;BME280;67727;50.236;22.452;2023-08-07T11:39:11;98552.31;;;23.34;49.21
78431;BME280;67727;50.236;22.452;2023-08-07T11:41:38;98556.85;;;23.44;49.47
78431;BME280;67727;50.236;22.452;2023-08-07T11:44:07;98558.33;;;23.52;47.97
78431;BME280;67727;50.236;22.452;2023-08-07T11:46:35;98559.02;;;23.57;48.79
78431;BME280;67727;50.236;22.452;2023-08-07T11:49:02;98555.25;;;23.67;48.37
78431;BME280;67727;50.236;22.452;2023-08-07T11:51:35;98547.95;;;23.83;48.25
78431;BME280;67727;50.236;22.452;2023-08-07T11:54:02;98547.85;;;23.95;48.53
78431;BME280;67727;50.236;22.452;2023-08-07T11:56:29;98545.30;;;24.06;47.94
78431;BME280;67727;50.236;22.452;2023-08-07T11:58:56;98550.12;;;24.21;48.40
78431;BME280;67727;50.236;22.452;2023-08-07T12:01:24;98552.68;;;24.35;48.20
78431;BME280;67727;50.236;22.452;2023-08-07T12:03:54;98558.45;;;24.51;48.60
78431;BME280;67727;50.236;22.452;2023-08-07T12:06:24;98558.27;;;24.72;48.76
78431;BME280;67727;50.236;22.452;2023-08-07T12:08:54;98559.47;;;24.84;47.65
78431;BME280;67727;50.236;22.452;2023-08-07T12:11:22;98562.41;;;24.90;47.07
78431;BME280;67727;50.236;22.452;2023-08-07T12:13:50;98560.96;;;24.89;46.80
78431;BME280;67727;50.236;22.452;2023-08-07T12:16:18;98565.02;;;24.86;47.50
78431;BME280;67727;50.236;22.452;2023-08-07T12:18:47;98563.84;;;24.92;47.36
78431;BME280;67727;50.236;22.452;2023-08-07T12:21:16;98564.92;;;25.11;47.61
78431;BME280;67727;50.236;22.452;2023-08-07T12:23:45;98571.44;;;25.34;47.47
78431;BME280;67727;50.236;22.452;2023-08-07T12:26:15;98571.08;;;25.44;46.41
78431;BME280;67727;50.236;22.452;2023-08-07T12:28:43;98573.83;;;25.48;45.57
78431;BME280;67727;50.236;22.452;2023-08-07T12:31:11;98576.70;;;25.45;45.37
78431;BME280;67727;50.236;22.452;2023-08-07T12:33:37;98578.16;;;25.37;46.16
78431;BME280;67727;50.236;22.452;2023-08-07T12:36:04;98575.77;;;25.20;45.93
78431;BME280;67727;50.236;22.452;2023-08-07T12:38:32;98580.20;;;24.96;45.71
78431;BME280;67727;50.236;22.452;2023-08-07T12:40:59;98583.81;;;24.71;46.66
78431;BME280;67727;50.236;22.452;2023-08-07T12:43:26;98586.52;;;24.51;47.98
78431;BME280;67727;50.236;22.452;2023-08-07T12:45:54;98583.72;;;24.47;49.42
78431;BME280;67727;50.236;22.452;2023-08-07T12:48:21;98581.73;;;24.55;50.03
78431;BME280;67727;50.236;22.452;2023-08-07T12:50:48;98583.85;;;24.66;49.75
78431;BME280;67727;50.236;22.452;2023-08-07T12:53:17;98587.42;;;24.70;49.23
78431;BME280;67727;50.236;22.452;2023-08-07T12:55:48;98588.91;;;24.61;49.12
78431;BME280;67727;50.236;22.452;2023-08-07T12:58:16;98590.73;;;24.56;49.63
78431;BME280;67727;50.236;22.452;2023-08-07T13:00:45;98585.55;;;24.54;49.85
78431;BME280;67727;50.236;22.452;2023-08-07T13:03:12;98587.22;;;24.45;50.37
78431;BME280;67727;50.236;22.452;2023-08-07T13:05:39;98591.94;;;24.32;50.70